Terminal Aerodrome Forecast
Issued by NWS

Home | Current Version | Previous Version | Graphics & Text | Print | Product List | Glossary On
Versions: 1 2 3 4 5 6 7 8 9 10 11 12 13 14
722
FTUS43 KICT 251120
TAFSLN
TAF
KSLN 251120Z 2512/2612 16012KT P6SM OVC200
     FM251600 20009KT P6SM BKN070 BKN250
     FM252000 34013KT P6SM VCSH BKN025
     FM252300 34012KT P6SM VCSH BKN030
     FM260100 36015G23KT P6SM VCSH OVC020
     FM260600 34016KT P6SM OVC010=

USA.gov is the U.S. government's official web portal to all federal, state and local government web resources and services.